MGGT/GUA METAR and TAF weather

Enter ICAO airport designator
Station Type Date Time Source
MGGT METAR 2021/03/05 06:00 UTC NOAA

MGGT 050600Z 35008KT CAVOK 16/10 Q1026 A3030


Station Type Date Time Source
MGGT Decoded METAR 2021/03/05 06:00 UTC NOAA

Guatemala Aeropuertola Aurora , Guatemala (MGGT) 14-35N 090-31W 1489M
Mar 05, 2021 - 01:00 AM EST / 2021.03.05 0600 UTC
Wind: from the N (350 degrees) at 9 MPH (8 KT):0
Visibility: greater than 7 mile(s):0
Temperature: 60 F (16 C)
Dew Point: 50 F (10 C)
Relative Humidity: 67%
Pressure (altimeter): 30.3 in. Hg (1026 hPa)
ob: MGGT 050600Z 35008KT CAVOK 16/10 Q1026 A3030
cycle: 6

Station Type Date Time Source
MGGT TAF 2021/03/05 06:09 UTC NOAA

TAF TAF MGGT 050500Z 0506/0606 36010KT CAVOK TX26/0520Z TN13/0512Z
BECMG 0508/0510 SCT016
BECMG 0515/0517 FEW020 PROB30 0522/0602 18008KT SCT020
BECMG 0603/0605 36008KT SCT016

Example: see airport list